HELX  Luxor International  Airport

Luxor, Egypt

Add Bookmark
ICAO HELX
IATA LXR
Type Airport
Status Operational
Latitude
25° 40' 15" N
25.671000
Longitude
32° 42' 23" E
32.706600
Local (DST + 2) UTC (GMT + 2)
Feb 13, 2016 09:12 Feb 13, 2016 19:12
Sunrise-Sunset Local UTC
Begin Civil Twilight 06:00 04:00
Sunrise 06:24 04:24
Sunset 05:42 15:42
End Civil Twilight 06:05 16:05
VFR
VFR
MVFR
MVFR
IFR
IFR
LIFR
LIFR
Unknown
Unavailable

Current Weather

METAR Observed VFR
HELX 131800Z 00000KT CAVOK 19/05 Q1017 NOSIG Sat, Feb 13, 2016 @ 18:00 UTC
(1 Hour, 12 Minutes ago)
Visual Flight Rules
Wind Visibility Conditions
Calm 10 km or more
  • No significant weather
Temperatures Readings Precipitation
Current Temp
19°C
66°F
Dewpoint
5°C
41°F
Humidity 40%
Altimeter 30.03" Hg
Sea Level Pressure 1,017 mb
Field Elevation
88 m
289 ft
None Recorded

Forecast Weather

TAF
TAF HELX 131700Z 1318/1424 28006KT 6000 NSC
From To
Sat, Feb 13, 2016 @ 18:00 UTC Mon, Feb 15, 2016 @ 00:00 UTC
Wind Visibility Conditions
280° at 6 knots (11 kph) 6,003 m
  • No significant weather
-
-

CheckWX.com is intended as a tool to help pilots better visualize weather data. It is not intended as a substitute for an official weather briefing obtained from a Flight Service Station. CheckWX.com does not meet the FAA requirements for an official pre-flight weather briefing. Therefore, it's important that pilots still call and obtain an official FSS pre-flight weather briefing.

© 2007-2016 CheckWX.com
19:12:52 UTC